Fulton, Indiana
Current Conditions -  °F | °C
As of 8:35 AM on Saturday 25 Oct 2014 (Local Time) from KRCR Reporting Station
Haze Haze  
Wind Chill: 54°   Ceiling: Unl
Heat Index: 54°   Visibility: 4mi
Dew Point: 54°   Wind: 5mph
Humidity: 100%   Direction: 240°WSW
Pressure: 29.93"   Gusts: NA
Location:  40.95°N, 86.26°W
Report Text: KRCR 251235Z AUTO 24004KT 4SM BR CLR 12/12 A2993 RMK AO2
Loading
Personal Weather Stations






























Interactive Weather Map
Tropical Storm Tracking
New forecast layout! Learn more

10-Day Weather Forecast

Advertisements
Track Severe Weather on mobile